createdAt,value
2023-01-17T00:00:54.625Z,97066.78
2023-01-17T00:01:56.909Z,97065.69
2023-01-17T00:02:59.143Z,97066.78
2023-01-17T00:04:20.377Z,97072.53
2023-01-17T00:05:41.196Z,97068.16
2023-01-17T00:07:01.929Z,97064.63
2023-01-17T00:08:23.016Z,97056.44
2023-01-17T00:09:43.802Z,97061.38
2023-01-17T00:10:45.964Z,97057.81
2023-01-17T00:11:48.211Z,97047.50
2023-01-17T00:13:00.826Z,97051.03
2023-01-17T00:14:03.006Z,97041.25
2023-01-17T00:15:06.258Z,97050.25
2023-01-17T00:16:08.573Z,97049.75
2023-01-17T00:17:10.851Z,97048.09
2023-01-17T00:18:13.036Z,97053.03
2023-01-17T00:19:33.726Z,97047.56
2023-01-17T00:20:54.405Z,97052.22
2023-01-17T00:22:15.091Z,97058.78
2023-01-17T00:23:55.999Z,97048.66
2023-01-17T00:25:16.865Z,97059.56
2023-01-17T00:26:19.761Z,97056.06
2023-01-17T00:27:23.856Z,97055.25
2023-01-17T00:28:27.086Z,97056.06
2023-01-17T00:29:29.183Z,97057.16
2023-01-17T00:30:32.158Z,97065.31
2023-01-17T00:31:34.386Z,97060.97
2023-01-17T00:32:36.579Z,97059.38
2023-01-17T00:33:41.454Z,97060.16
2023-01-17T00:34:43.548Z,97061.25
2023-01-17T00:35:45.809Z,97056.66
2023-01-17T00:36:47.954Z,97050.38
2023-01-17T00:38:00.858Z,97048.72
2023-01-17T00:39:02.993Z,97048.72
2023-01-17T00:40:05.631Z,97045.75
2023-01-17T00:41:14.463Z,97043.28
2023-01-17T00:42:16.631Z,97044.41
2023-01-17T00:43:41.623Z,97052.28
2023-01-17T00:45:02.251Z,97052.84
2023-01-17T00:46:24.647Z,97054.47
2023-01-17T00:47:45.386Z,97054.47
2023-01-17T00:49:07.008Z,97054.47
2023-01-17T00:50:28.337Z,97056.41
2023-01-17T00:51:51.336Z,97053.16
2023-01-17T00:53:11.834Z,97056.16
2023-01-17T00:54:33.699Z,97053.44
2023-01-17T00:55:54.599Z,97055.38
2023-01-17T00:57:15.347Z,97054.53
2023-01-17T00:58:35.846Z,97057.56
2023-01-17T00:59:57.024Z,97057.56
2023-01-17T01:01:17.996Z,97059.75
2023-01-17T01:02:39.112Z,97057.84
2023-01-17T01:04:00.443Z,97055.44
2023-01-17T01:05:21.384Z,97063.31
2023-01-17T01:06:42.039Z,97059.75
2023-01-17T01:08:02.946Z,97064.09
2023-01-17T01:09:23.966Z,97062.22
2023-01-17T01:10:44.730Z,97064.94
2023-01-17T01:12:05.326Z,97061.91
2023-01-17T01:13:26.309Z,97058.91
2023-01-17T01:14:47.234Z,97065.16
2023-01-17T01:16:08.265Z,97067.59
2023-01-17T01:17:28.919Z,97059.94
2023-01-17T01:18:49.608Z,97062.09
2023-01-17T01:20:10.900Z,97063.44
2023-01-17T01:21:31.903Z,97059.56
2023-01-17T01:22:52.653Z,97069.09
2023-01-17T01:24:13.377Z,97065.81
2023-01-17T01:25:33.970Z,97065.22
2023-01-17T01:26:54.661Z,97068.47
2023-01-17T01:28:30.928Z,97065.94
2023-01-17T01:29:51.668Z,97066.72
2023-01-17T01:31:12.311Z,97063.38
2023-01-17T01:32:32.972Z,97066.34
2023-01-17T01:33:35.603Z,97068.47
2023-01-17T01:34:37.747Z,97056.47
2023-01-17T01:35:41.984Z,97065.69
2023-01-17T01:36:44.193Z,97068.94
2023-01-17T01:37:46.438Z,97064.53
2023-01-17T01:38:50.373Z,97070.22
2023-01-17T01:39:52.619Z,97063.34
2023-01-17T01:40:56.701Z,97066.28
2023-01-17T01:41:58.854Z,97068.44
2023-01-17T01:43:03.191Z,97057.75
2023-01-17T01:44:05.551Z,97056.34
2023-01-17T01:45:20.682Z,97062.00
2023-01-17T01:46:29.623Z,97065.28
2023-01-17T01:47:40.831Z,97060.84
2023-01-17T01:49:01.734Z,97061.88
2023-01-17T01:50:08.956Z,97064.03
2023-01-17T01:51:15.973Z,97057.16
2023-01-17T01:52:20.544Z,97059.28
2023-01-17T01:53:23.184Z,97059.50
2023-01-17T01:54:42.917Z,97060.84
2023-01-17T01:55:49.685Z,97056.72
2023-01-17T01:56:54.268Z,97056.09
2023-01-17T01:58:04.472Z,97060.16
2023-01-17T01:59:11.340Z,97057.94
2023-01-17T02:00:23.701Z,97060.88
2023-01-17T02:01:25.972Z,97062.19
2023-01-17T02:02:31.024Z,97062.72
2023-01-17T02:03:34.232Z,97055.84
2023-01-17T02:04:37.424Z,97059.91
2023-01-17T02:05:43.710Z,97049.50
2023-01-17T02:06:49.221Z,97054.38
2023-01-17T02:08:13.490Z,97060.31
2023-01-17T02:09:18.420Z,97058.13
2023-01-17T02:10:21.353Z,97053.19
2023-01-17T02:11:23.611Z,97060.25
2023-01-17T02:12:27.075Z,97064.28
2023-01-17T02:13:29.349Z,97059.34
2023-01-17T02:14:31.571Z,97053.59
2023-01-17T02:15:49.766Z,97049.44
2023-01-17T02:17:29.799Z,97060.06
2023-01-17T02:18:40.249Z,97051.59
2023-01-17T02:20:00.769Z,97059.19
2023-01-17T02:21:10.257Z,97053.41
2023-01-17T02:22:34.461Z,97061.00
2023-01-17T02:24:14.524Z,97059.91
2023-01-17T02:26:01.815Z,97054.66
2023-01-17T02:27:27.576Z,97057.91
2023-01-17T02:29:06.960Z,97054.84
2023-01-17T02:30:32.986Z,97055.34
2023-01-17T02:31:58.193Z,97053.44
2023-01-17T02:33:05.895Z,97062.97
2023-01-17T02:34:28.617Z,97061.88
2023-01-17T02:35:56.889Z,97064.28
2023-01-17T02:37:11.883Z,97065.91
2023-01-17T02:38:35.383Z,97069.44
2023-01-17T02:39:42.951Z,97072.72
2023-01-17T02:41:01.635Z,97070.78
2023-01-17T02:42:12.843Z,97072.41
2023-01-17T02:43:17.702Z,97071.25
2023-01-17T02:44:20.856Z,97074.81
2023-01-17T02:45:23.224Z,97073.72
2023-01-17T02:46:25.451Z,97060.06
2023-01-17T02:47:30.147Z,97064.69
2023-01-17T02:48:36.433Z,97062.47
2023-01-17T02:49:38.576Z,97074.22
2023-01-17T02:51:07.617Z,97064.59
2023-01-17T02:52:36.593Z,97077.16
2023-01-17T02:54:16.228Z,97086.69
2023-01-17T02:55:47.920Z,97079.00
2023-01-17T02:57:14.952Z,97082.22
2023-01-17T02:58:29.215Z,97072.13
2023-01-17T02:59:47.560Z,97087.91
2023-01-17T03:01:14.648Z,97090.34
2023-01-17T03:02:40.187Z,97080.22
2023-01-17T03:04:10.041Z,97076.66
2023-01-17T03:05:25.183Z,97092.47
2023-01-17T03:06:39.776Z,97094.91
2023-01-17T03:07:44.469Z,97094.91
2023-01-17T03:08:49.892Z,97090.25
2023-01-17T03:09:59.537Z,97104.72
2023-01-17T03:11:02.595Z,97099.25
2023-01-17T03:12:05.743Z,97085.28
2023-01-17T03:13:07.896Z,97091.25
2023-01-17T03:14:10.089Z,97091.25
2023-01-17T03:15:14.937Z,97093.69
2023-01-17T03:16:19.941Z,97103.50
2023-01-17T03:17:25.704Z,97107.88
2023-01-17T03:18:27.930Z,97111.41
2023-01-17T03:19:31.441Z,97104.84
2023-01-17T03:20:33.740Z,97102.09
2023-01-17T03:21:36.160Z,97109.19
2023-01-17T03:22:38.495Z,97095.53
2023-01-17T03:23:40.843Z,97104.53
2023-01-17T03:24:43.073Z,97115.47
2023-01-17T03:25:45.313Z,97113.56
2023-01-17T03:26:48.039Z,97119.53
2023-01-17T03:27:50.416Z,97128.25
2023-01-17T03:28:52.597Z,97123.28
2023-01-17T03:29:54.834Z,97130.69
2023-01-17T03:30:57.094Z,97131.19
2023-01-17T03:31:59.322Z,97137.78
2023-01-17T03:33:01.546Z,97118.63
2023-01-17T03:34:03.690Z,97133.72
2023-01-17T03:35:06.401Z,97138.56
2023-01-17T03:36:08.829Z,97139.72
2023-01-17T03:37:11.099Z,97143.25
2023-01-17T03:38:13.693Z,97141.31
2023-01-17T03:39:15.876Z,97141.00
2023-01-17T03:40:18.080Z,97144.56
2023-01-17T03:41:20.286Z,97132.00
2023-01-17T03:42:22.462Z,97147.31
2023-01-17T03:43:24.656Z,97134.72
2023-01-17T03:44:26.856Z,97147.59
2023-01-17T03:45:29.130Z,97151.66
2023-01-17T03:46:32.670Z,97143.47
2023-01-17T03:47:36.395Z,97151.34
2023-01-17T03:48:40.991Z,97152.97
2023-01-17T03:54:00.865Z,97149.41
2023-01-17T03:55:05.682Z,97146.69
2023-01-17T03:56:08.203Z,97146.69
2023-01-17T03:57:10.360Z,97148.09
2023-01-17T03:58:12.649Z,97142.63
2023-01-17T03:59:17.159Z,97152.78
2023-01-17T04:00:20.909Z,97149.72
2023-01-17T04:01:23.168Z,97145.38
2023-01-17T04:02:26.019Z,97150.03
2023-01-17T04:03:28.212Z,97160.47
2023-01-17T04:04:30.418Z,97144.88
2023-01-17T04:05:32.576Z,97144.88
2023-01-17T04:06:34.896Z,97153.88
2023-01-17T04:07:37.099Z,97145.19
2023-01-17T04:08:40.541Z,97149.81
2023-01-17T04:09:42.904Z,97160.47
2023-01-17T04:10:45.081Z,97173.34
2023-01-17T04:11:50.928Z,97165.75
2023-01-17T04:12:53.337Z,97165.75
2023-01-17T04:13:55.558Z,97167.66
2023-01-17T04:14:57.762Z,97164.91
2023-01-17T04:16:10.316Z,97167.66
2023-01-17T04:17:12.839Z,97191.16
2023-01-17T04:18:17.355Z,97162.69
2023-01-17T04:19:20.228Z,97167.66
2023-01-17T04:20:30.986Z,97167.66
2023-01-17T04:21:33.186Z,97168.16
2023-01-17T04:22:35.912Z,97159.44
2023-01-17T04:23:38.130Z,97168.75
2023-01-17T04:24:40.343Z,97173.13
2023-01-17T04:25:42.550Z,97180.53
2023-01-17T04:26:45.167Z,97182.44
2023-01-17T04:27:47.317Z,97182.75
2023-01-17T04:28:49.723Z,97175.63
2023-01-17T04:29:51.965Z,97183.84
2023-01-17T04:30:58.954Z,97179.50
2023-01-17T04:32:01.184Z,97186.88
2023-01-17T04:33:03.510Z,97187.72
2023-01-17T04:34:05.692Z,97190.44
2023-01-17T04:35:09.863Z,97197.34
2023-01-17T04:36:13.244Z,97189.63
2023-01-17T04:37:15.452Z,97177.06
2023-01-17T04:38:17.646Z,97200.88
2023-01-17T04:39:19.931Z,97189.13
2023-01-17T04:40:22.170Z,97209.88
2023-01-17T04:41:24.365Z,97201.97
2023-01-17T04:42:26.529Z,97202.28
2023-01-17T04:43:28.747Z,97206.94
2023-01-17T04:44:30.947Z,97209.38
2023-01-17T04:45:33.162Z,97212.13
2023-01-17T04:46:35.336Z,97215.97
2023-01-17T04:47:37.520Z,97203.38
2023-01-17T04:48:42.324Z,97206.13
2023-01-17T04:49:44.494Z,97213.22
2023-01-17T04:50:46.651Z,97207.75
2023-01-17T04:51:48.850Z,97217.91
2023-01-17T04:53:53.315Z,97221.44
2023-01-17T04:54:55.533Z,97228.00
2023-01-17T04:55:58.234Z,97229.63
2023-01-17T04:57:00.423Z,97221.72
2023-01-17T04:58:02.817Z,97228.00
2023-01-17T04:59:05.201Z,97229.94
2023-01-17T05:00:10.684Z,97237.84
2023-01-17T05:01:13.024Z,97241.69
2023-01-17T05:02:15.302Z,97247.44
2023-01-17T05:03:21.934Z,97251.00
2023-01-17T05:04:24.331Z,97241.97
2023-01-17T05:06:28.985Z,97244.72
2023-01-17T05:07:31.230Z,97240.66
2023-01-17T05:08:33.429Z,97249.97
2023-01-17T05:09:35.678Z,97240.66
2023-01-17T05:10:37.911Z,97243.41
2023-01-17T05:11:40.118Z,97255.44
2023-01-17T05:12:42.299Z,97251.06
2023-01-17T05:13:44.531Z,97252.22
2023-01-17T05:14:46.764Z,97258.78
2023-01-17T05:15:49.153Z,97261.22
2023-01-17T05:16:53.736Z,97257.69
2023-01-17T05:17:56.655Z,97268.63
2023-01-17T05:18:58.902Z,97263.94
2023-01-17T05:20:02.422Z,97260.41
2023-01-17T05:21:05.604Z,97259.56
2023-01-17T05:22:15.244Z,97254.94
2023-01-17T05:23:17.655Z,97269.72
2023-01-17T05:24:20.995Z,97272.16
2023-01-17T05:25:30.915Z,97271.34
2023-01-17T05:26:33.073Z,97271.34
2023-01-17T05:27:35.546Z,97271.03
2023-01-17T05:28:37.799Z,97270.50
2023-01-17T05:29:42.359Z,97263.94
2023-01-17T05:30:44.705Z,97264.75
2023-01-17T05:31:46.987Z,97271.84
2023-01-17T05:32:53.327Z,97272.94
2023-01-17T05:33:58.656Z,97278.41
2023-01-17T05:35:02.629Z,97270.22
2023-01-17T05:36:05.168Z,97270.81
2023-01-17T05:37:07.960Z,97284.19
2023-01-17T05:38:10.135Z,97280.66
2023-01-17T05:39:12.275Z,97291.28
2023-01-17T05:40:15.869Z,97279.56
2023-01-17T05:41:18.046Z,97279.03
2023-01-17T05:42:20.287Z,97284.50
2023-01-17T05:43:23.222Z,97272.44
2023-01-17T05:44:27.610Z,97270.81
2023-01-17T05:45:31.970Z,97276.28
2023-01-17T05:46:34.258Z,97279.84
2023-01-17T05:47:36.395Z,97275.50
2023-01-17T05:48:38.556Z,97285.59
2023-01-17T05:49:43.893Z,97289.16
2023-01-17T05:50:48.075Z,97283.69
2023-01-17T05:51:50.465Z,97281.25
2023-01-17T05:52:57.953Z,97287.53
2023-01-17T05:54:00.133Z,97290.25
2023-01-17T05:55:02.346Z,97289.47
2023-01-17T05:56:04.781Z,97291.69
2023-01-17T05:57:06.921Z,97286.72
2023-01-17T05:58:18.037Z,97301.50
2023-01-17T05:59:28.709Z,97303.41
2023-01-17T06:00:38.693Z,97294.94
2023-01-17T06:01:40.920Z,97304.25
2023-01-17T06:02:43.856Z,97308.09
2023-01-17T06:03:46.134Z,97308.88
2023-01-17T06:04:48.741Z,97321.75
2023-01-17T06:05:51.203Z,97317.38
2023-01-17T06:06:53.380Z,97313.03
2023-01-17T06:07:56.700Z,97313.03
2023-01-17T06:08:58.988Z,97308.69
2023-01-17T06:10:01.229Z,97320.41
2023-01-17T06:11:03.491Z,97305.94
2023-01-17T06:12:06.814Z,97311.41
2023-01-17T06:13:12.609Z,97302.38
2023-01-17T06:14:14.914Z,97281.13
2023-01-17T06:15:18.807Z,97309.56
2023-01-17T06:16:21.089Z,97316.13
2023-01-17T06:17:23.401Z,97321.59
2023-01-17T06:18:25.607Z,97311.50
2023-01-17T06:19:30.063Z,97316.13
2023-01-17T06:20:33.445Z,97310.66
2023-01-17T06:21:35.650Z,97318.56
2023-01-17T06:22:37.862Z,97304.41
2023-01-17T06:23:40.024Z,97316.13
2023-01-17T06:24:42.242Z,97313.69
2023-01-17T06:25:47.231Z,97312.06
2023-01-17T06:26:49.508Z,97314.81
2023-01-17T06:27:54.422Z,97316.22
2023-01-17T06:28:56.574Z,97320.56
2023-01-17T06:29:58.774Z,97318.13
2023-01-17T06:31:06.042Z,97317.31
2023-01-17T06:32:08.339Z,97309.41
2023-01-17T06:33:11.159Z,97309.94
2023-01-17T06:34:13.323Z,97311.03
2023-01-17T06:35:15.547Z,97310.25
2023-01-17T06:36:20.236Z,97320.34
2023-01-17T06:37:22.460Z,97322.28
2023-01-17T06:38:24.627Z,97314.88
2023-01-17T06:39:26.791Z,97326.41
2023-01-17T06:40:30.919Z,97322.03
2023-01-17T06:41:33.238Z,97310.59
2023-01-17T06:42:35.740Z,97312.81
2023-01-17T06:43:38.116Z,97326.19
2023-01-17T06:44:40.283Z,97326.47
2023-01-17T06:45:42.495Z,97330.31
2023-01-17T06:46:45.272Z,97320.47
2023-01-17T06:47:47.555Z,97336.88
2023-01-17T06:48:50.389Z,97339.91
2023-01-17T06:49:52.763Z,97324.34
2023-01-17T06:50:55.079Z,97339.41
2023-01-17T06:51:57.287Z,97351.16
2023-01-17T06:53:06.017Z,97353.59
2023-01-17T06:54:08.769Z,97343.75
2023-01-17T06:55:11.008Z,97361.56
2023-01-17T06:56:13.218Z,97356.09
2023-01-17T06:57:15.375Z,97368.66
2023-01-17T06:58:17.646Z,97368.94
2023-01-17T06:59:20.733Z,97371.97
2023-01-17T07:00:23.098Z,97370.88
2023-01-17T07:01:25.497Z,97370.88
2023-01-17T07:02:27.794Z,97383.72
2023-01-17T07:03:30.198Z,97382.09
2023-01-17T07:04:38.491Z,97372.28
2023-01-17T07:05:41.662Z,97371.44
2023-01-17T07:06:43.837Z,97374.47
2023-01-17T07:07:46.622Z,97382.38
2023-01-17T07:08:49.133Z,97390.56
2023-01-17T07:09:54.514Z,97382.38
2023-01-17T07:11:01.895Z,97381.56
2023-01-17T07:12:04.306Z,97388.94
2023-01-17T07:13:06.533Z,97394.41
2023-01-17T07:14:12.875Z,97395.53
2023-01-17T07:15:15.144Z,97391.97
2023-01-17T07:16:17.498Z,97388.44
2023-01-17T07:17:19.816Z,97393.91
2023-01-17T07:18:23.603Z,97392.28
2023-01-17T07:19:25.998Z,97392.28
2023-01-17T07:20:28.404Z,97395.00
2023-01-17T07:21:30.705Z,97390.63
2023-01-17T07:22:32.957Z,97403.19
2023-01-17T07:23:35.284Z,97393.66
2023-01-17T07:24:37.770Z,97408.16
2023-01-17T07:25:40.035Z,97391.22
2023-01-17T07:26:42.231Z,97392.88
2023-01-17T07:27:44.393Z,97404.91
2023-01-17T07:28:46.603Z,97400.53
2023-01-17T07:29:48.878Z,97389.59
2023-01-17T07:30:51.430Z,97404.91
2023-01-17T07:31:53.596Z,97400.53
2023-01-17T07:32:56.385Z,97405.19
2023-01-17T07:34:01.676Z,97398.91
2023-01-17T07:35:04.419Z,97391.84
2023-01-17T07:36:08.122Z,97403.84
2023-01-17T07:37:10.320Z,97405.50
2023-01-17T07:38:22.846Z,97398.41
2023-01-17T07:39:25.119Z,97415.59
2023-01-17T07:40:27.376Z,97410.13
2023-01-17T07:41:34.720Z,97421.34
2023-01-17T07:42:51.642Z,97417.00
2023-01-17T07:43:56.192Z,97403.31
2023-01-17T07:45:00.704Z,97418.09
2023-01-17T07:46:07.327Z,97418.91
2023-01-17T07:47:09.911Z,97417.81
2023-01-17T07:48:12.796Z,97422.16
2023-01-17T07:49:17.257Z,97429.56
2023-01-17T07:50:19.463Z,97426.00
2023-01-17T07:51:31.992Z,97421.66
2023-01-17T07:52:34.271Z,97417.81
2023-01-17T07:53:36.692Z,97422.97
2023-01-17T07:54:38.962Z,97405.75
2023-01-17T07:55:41.156Z,97401.13
2023-01-17T07:56:47.158Z,97400.59
2023-01-17T07:57:50.899Z,97416.69
2023-01-17T07:58:53.051Z,97400.59
2023-01-17T07:59:55.209Z,97411.53
2023-01-17T08:01:04.437Z,97420.56
2023-01-17T08:02:15.150Z,97413.97
2023-01-17T08:03:20.672Z,97416.69
2023-01-17T08:04:26.312Z,97414.53
2023-01-17T08:05:32.007Z,97425.19
2023-01-17T08:06:34.269Z,97419.22
2023-01-17T08:07:36.608Z,97409.88
2023-01-17T08:08:38.781Z,97402.81
2023-01-17T08:09:42.378Z,97421.66
2023-01-17T08:10:44.546Z,97412.63
2023-01-17T08:11:46.719Z,97418.09
2023-01-17T08:12:52.655Z,97417.81
2023-01-17T08:13:59.503Z,97415.88
2023-01-17T08:15:01.723Z,97420.25
2023-01-17T08:16:04.260Z,97420.50
2023-01-17T08:17:08.157Z,97428.63
2023-01-17T08:18:10.388Z,97418.50
2023-01-17T08:19:12.544Z,97426.94
2023-01-17T08:20:17.366Z,97411.28
2023-01-17T08:21:19.629Z,97433.69
2023-01-17T08:22:22.543Z,97419.94
2023-01-17T08:23:25.500Z,97423.44
2023-01-17T08:24:27.733Z,97424.75
2023-01-17T08:25:33.182Z,97427.94
2023-01-17T08:26:38.508Z,97431.75
2023-01-17T08:27:40.762Z,97428.94
2023-01-17T08:28:42.961Z,97437.34
2023-01-17T08:29:48.394Z,97435.38
2023-01-17T08:30:54.213Z,97444.06
2023-01-17T08:31:56.522Z,97440.78
2023-01-17T08:32:58.712Z,97442.91
2023-01-17T08:34:01.688Z,97440.97
2023-01-17T08:35:06.350Z,97431.38
2023-01-17T08:36:08.564Z,97438.78
2023-01-17T08:37:10.730Z,97441.75
2023-01-17T08:38:12.875Z,97442.25
2023-01-17T08:39:15.160Z,97425.25
2023-01-17T08:40:20.896Z,97435.59
2023-01-17T08:41:24.189Z,97445.44
2023-01-17T08:42:27.917Z,97453.88
2023-01-17T08:43:30.113Z,97450.00
2023-01-17T08:44:32.336Z,97445.84
2023-01-17T08:45:34.665Z,97451.06
2023-01-17T08:46:38.706Z,97449.94
2023-01-17T08:47:41.003Z,97455.66
2023-01-17T08:48:44.615Z,97456.19
2023-01-17T08:49:46.855Z,97466.03
2023-01-17T08:50:49.882Z,97458.31
2023-01-17T08:51:52.858Z,97468.66
2023-01-17T08:53:01.094Z,97467.25
2023-01-17T08:54:03.750Z,97476.53
2023-01-17T08:55:07.546Z,97479.47
2023-01-17T08:56:09.809Z,97465.19
2023-01-17T08:57:11.954Z,97474.44
2023-01-17T08:58:14.309Z,97483.38
2023-01-17T08:59:16.503Z,97482.50
2023-01-17T09:00:21.360Z,97485.97
2023-01-17T09:01:26.414Z,97482.03
2023-01-17T09:02:31.148Z,97487.13
2023-01-17T09:03:34.447Z,97490.59
2023-01-17T09:04:37.147Z,97491.84
2023-01-17T09:05:39.582Z,97490.63
2023-01-17T09:06:45.546Z,97488.63
2023-01-17T09:07:47.711Z,97496.97
2023-01-17T09:08:52.160Z,97493.03
2023-01-17T09:09:56.822Z,97500.84
2023-01-17T09:10:59.076Z,97503.72
2023-01-17T09:12:03.538Z,97508.00
2023-01-17T09:13:06.977Z,97505.34
2023-01-17T09:14:12.306Z,97502.50
2023-01-17T09:15:17.901Z,97500.19
2023-01-17T09:16:20.189Z,97503.03
2023-01-17T09:17:22.409Z,97508.94
2023-01-17T09:18:25.883Z,97498.66
2023-01-17T09:19:28.458Z,97503.72
2023-01-17T09:20:30.994Z,97508.00
2023-01-17T09:21:33.194Z,97506.78
2023-01-17T09:22:37.810Z,97514.91
2023-01-17T09:23:40.499Z,97521.94
2023-01-17T09:24:42.793Z,97519.59
2023-01-17T09:25:45.235Z,97523.84
2023-01-17T09:26:47.597Z,97512.44
2023-01-17T09:27:50.403Z,97528.50
2023-01-17T09:28:54.386Z,97532.75
2023-01-17T09:29:56.546Z,97520.53
2023-01-17T09:30:58.776Z,97527.25
2023-01-17T09:32:04.237Z,97531.47
2023-01-17T09:33:06.415Z,97518.75
2023-01-17T09:34:08.769Z,97525.75
2023-01-17T09:35:11.124Z,97525.63
2023-01-17T09:36:13.439Z,97537.00
2023-01-17T09:37:21.427Z,97541.25
2023-01-17T09:38:23.938Z,97534.50
2023-01-17T09:39:26.259Z,97535.19
2023-01-17T09:40:28.568Z,97529.25
2023-01-17T09:41:42.609Z,97531.03
2023-01-17T09:42:46.040Z,97536.94
2023-01-17T09:43:56.905Z,97541.19
2023-01-17T09:44:59.385Z,97534.41
2023-01-17T09:46:01.972Z,97543.66
2023-01-17T09:47:17.795Z,97506.16
2023-01-17T09:48:36.417Z,97542.91
2023-01-17T09:49:43.979Z,97541.44
2023-01-17T09:50:46.173Z,97544.69
2023-01-17T09:51:48.444Z,97546.31
2023-01-17T09:53:01.351Z,97537.44
2023-01-17T09:54:03.877Z,97538.25
2023-01-17T09:55:08.091Z,97549.25
2023-01-17T09:56:35.347Z,97546.50
2023-01-17T09:57:46.643Z,97547.00
2023-01-17T09:59:08.659Z,97539.69
2023-01-17T10:00:37.391Z,97548.06
2023-01-17T10:02:05.803Z,97548.41
2023-01-17T10:03:28.058Z,97545.97
2023-01-17T10:04:52.113Z,97543.03
2023-01-17T10:06:18.013Z,97551.28
2023-01-17T10:07:43.119Z,97554.66
2023-01-17T10:09:09.763Z,97543.16
2023-01-17T10:10:47.672Z,97557.84
2023-01-17T10:12:08.710Z,97551.03
2023-01-17T10:13:32.887Z,97557.97
2023-01-17T10:15:03.554Z,97551.47
2023-01-17T10:16:28.136Z,97555.38
2023-01-17T10:17:36.572Z,97550.50
2023-01-17T10:18:57.447Z,97555.00
2023-01-17T10:19:59.597Z,97548.19
2023-01-17T10:21:30.956Z,97545.75
2023-01-17T10:22:54.519Z,97541.69
2023-01-17T10:24:03.804Z,97548.63
2023-01-17T10:25:23.368Z,97554.94
2023-01-17T10:26:29.848Z,97550.53
2023-01-17T10:27:39.336Z,97554.94
2023-01-17T10:28:48.922Z,97554.94
2023-01-17T10:29:51.760Z,97545.88
2023-01-17T10:31:08.153Z,97553.28
2023-01-17T10:32:12.915Z,97543.72
2023-01-17T10:33:21.118Z,97552.81
2023-01-17T10:34:29.451Z,97531.94
2023-01-17T10:35:37.607Z,97548.75
2023-01-17T10:36:44.384Z,97543.56
2023-01-17T10:37:49.129Z,97539.81
2023-01-17T10:38:55.437Z,97548.19
2023-01-17T10:40:12.167Z,97552.38
2023-01-17T10:41:24.306Z,97549.44
2023-01-17T10:42:32.091Z,97554.22
2023-01-17T10:44:13.259Z,97564.53
2023-01-17T10:45:20.855Z,97569.03
2023-01-17T10:46:31.534Z,97570.75
2023-01-17T10:47:37.794Z,97570.88
2023-01-17T10:48:44.278Z,97569.03
2023-01-17T10:49:49.207Z,97570.00
2023-01-17T10:51:29.936Z,97571.72
2023-01-17T10:52:52.911Z,97569.09
2023-01-17T10:54:23.952Z,97568.38
2023-01-17T10:55:47.624Z,97564.94
2023-01-17T10:56:50.121Z,97559.53
2023-01-17T10:57:53.460Z,97563.19
2023-01-17T10:59:17.899Z,97568.00
2023-01-17T11:00:33.980Z,97569.41
2023-01-17T11:01:36.256Z,97564.84
2023-01-17T11:02:53.123Z,97571.22
2023-01-17T11:03:56.289Z,97564.41
2023-01-17T11:05:03.558Z,97565.03
2023-01-17T11:06:19.663Z,97568.38
2023-01-17T11:07:26.209Z,97567.56
2023-01-17T11:08:28.479Z,97576.13
2023-01-17T11:09:41.844Z,97577.22
2023-01-17T11:10:48.487Z,97574.47
2023-01-17T11:11:51.617Z,97572.53
2023-01-17T11:12:53.932Z,97575.28
2023-01-17T11:13:59.772Z,97574.97
2023-01-17T11:15:10.936Z,97569.47
2023-01-17T11:16:21.997Z,97573.53
2023-01-17T11:17:25.241Z,97578.75
2023-01-17T11:18:34.430Z,97572.97
2023-01-17T11:19:38.659Z,97572.66
2023-01-17T11:20:45.069Z,97575.09
2023-01-17T11:22:01.851Z,97573.66
2023-01-17T11:23:16.338Z,97568.69
2023-01-17T11:24:34.553Z,97580.69
2023-01-17T11:25:37.680Z,97585.56
2023-01-17T11:26:49.903Z,97579.50
2023-01-17T11:28:26.613Z,97587.09
2023-01-17T11:29:37.225Z,97579.41
2023-01-17T11:30:52.058Z,97581.50
2023-01-17T11:31:56.333Z,97580.41
2023-01-17T11:33:06.276Z,97584.47
2023-01-17T11:34:18.981Z,97582.53
2023-01-17T11:35:38.478Z,97583.84
2023-01-17T11:36:40.791Z,97578.34
2023-01-17T11:37:52.413Z,97568.69
2023-01-17T11:39:27.851Z,97565.94
2023-01-17T11:41:16.400Z,97570.00
2023-01-17T11:42:58.904Z,97566.47
2023-01-17T11:44:03.668Z,97570.00
2023-01-17T11:45:25.673Z,97572.75
2023-01-17T11:46:29.744Z,97568.06
2023-01-17T11:47:32.015Z,97571.94
2023-01-17T11:48:40.010Z,97571.44
2023-01-17T11:49:44.619Z,97581.31
2023-01-17T11:50:56.674Z,97560.44
2023-01-17T11:51:59.065Z,97563.50
2023-01-17T11:53:25.083Z,97572.06
2023-01-17T11:54:29.994Z,97573.97
2023-01-17T11:55:32.290Z,97580.59
2023-01-17T11:56:36.772Z,97576.72
2023-01-17T11:57:39.060Z,97567.69
2023-01-17T11:58:42.614Z,97572.66
2023-01-17T11:59:45.992Z,97562.81
2023-01-17T12:00:57.360Z,97569.91
2023-01-17T12:02:01.269Z,97571.84
2023-01-17T12:03:26.754Z,97573.47
2023-01-17T12:05:08.954Z,97572.66
2023-01-17T12:06:28.411Z,97571.84
2023-01-17T12:07:45.044Z,97570.53
2023-01-17T12:09:12.494Z,97579.56
2023-01-17T12:10:32.789Z,97574.06
2023-01-17T12:12:30.095Z,97573.28
2023-01-17T12:14:02.181Z,97571.34
2023-01-17T12:15:21.234Z,97563.94
2023-01-17T12:17:11.243Z,97563.09
2023-01-17T12:18:22.308Z,97557.59
2023-01-17T12:19:24.453Z,97568.09
2023-01-17T12:20:55.974Z,97570.00
2023-01-17T12:22:16.551Z,97568.41
2023-01-17T12:23:43.188Z,97563.81
2023-01-17T12:25:20.655Z,97575.13
2023-01-17T12:26:27.683Z,97580.91
2023-01-17T12:27:43.493Z,97584.78
2023-01-17T12:29:16.822Z,97585.09
2023-01-17T12:30:29.635Z,97586.47
2023-01-17T12:31:36.850Z,97600.19
2023-01-17T12:33:20.920Z,97596.13
2023-01-17T12:34:28.393Z,97594.50
2023-01-17T12:35:55.751Z,97586.06
2023-01-17T12:37:02.167Z,97603.38
2023-01-17T12:38:18.050Z,97600.41
2023-01-17T12:39:35.667Z,97592.47
2023-01-17T12:41:10.362Z,97593.91
2023-01-17T12:42:22.172Z,97597.22
2023-01-17T12:43:35.401Z,97607.41
2023-01-17T12:45:20.798Z,97606.88
2023-01-17T12:46:34.081Z,97607.19
2023-01-17T12:47:43.029Z,97603.97
2023-01-17T12:48:45.249Z,97605.06
2023-01-17T12:50:06.640Z,97607.59
2023-01-17T12:51:17.954Z,97609.81
2023-01-17T12:52:35.617Z,97602.19
2023-01-17T12:54:13.293Z,97605.25
2023-01-17T12:55:40.185Z,97613.28
2023-01-17T12:57:14.400Z,97606.78
2023-01-17T12:58:22.641Z,97607.38
2023-01-17T12:59:51.223Z,97607.97
2023-01-17T13:01:02.842Z,97611.63
2023-01-17T13:02:18.703Z,97617.69
2023-01-17T13:03:35.622Z,97609.25
2023-01-17T13:04:59.046Z,97609.06
2023-01-17T13:06:03.428Z,97608.53
2023-01-17T13:07:45.661Z,97611.88
2023-01-17T13:08:53.524Z,97607.28
2023-01-17T13:10:03.734Z,97608.72
2023-01-17T13:11:18.545Z,97606.56
2023-01-17T13:12:22.733Z,97610.72
2023-01-17T13:13:28.142Z,97605.81
2023-01-17T13:14:30.667Z,97608.06
2023-01-17T13:15:39.328Z,97606.44
2023-01-17T13:17:02.726Z,97607.03
2023-01-17T13:18:22.813Z,97615.56
2023-01-17T13:19:44.459Z,97608.44
2023-01-17T13:21:09.625Z,97610.66
2023-01-17T13:22:18.094Z,97614.81
2023-01-17T13:23:56.302Z,97608.84
2023-01-17T13:25:31.972Z,97615.72
2023-01-17T13:26:55.638Z,97614.09
2023-01-17T13:28:36.950Z,97621.78
2023-01-17T13:29:44.983Z,97624.31
2023-01-17T13:31:03.538Z,97624.91
2023-01-17T13:32:12.072Z,97623.56
2023-01-17T13:33:15.425Z,97628.56
2023-01-17T13:34:53.018Z,97621.75
2023-01-17T13:35:58.203Z,97629.44
2023-01-17T13:37:49.242Z,97630.03